createdAt,value
2022-12-13T00:01:21.127Z,62.85
2022-12-13T00:03:47.685Z,63.02
2022-12-13T00:06:14.691Z,62.65
2022-12-13T00:08:41.793Z,63.43
2022-12-13T00:11:11.370Z,62.65
2022-12-13T00:13:37.956Z,63.11
2022-12-13T00:16:07.332Z,62.63
2022-12-13T00:18:34.345Z,62.38
2022-12-13T00:21:05.148Z,63.23
2022-12-13T00:23:31.611Z,63.14
2022-12-13T00:26:06.059Z,63.02
2022-12-13T00:28:32.940Z,63.33
2022-12-13T00:31:19.717Z,63.45
2022-12-13T00:33:47.059Z,64.00
2022-12-13T00:36:13.932Z,63.43
2022-12-13T00:38:40.452Z,63.24
2022-12-13T00:41:25.061Z,63.32
2022-12-13T00:43:51.525Z,64.14
2022-12-13T00:46:19.490Z,63.87
2022-12-13T00:48:50.357Z,63.19
2022-12-13T00:51:17.473Z,63.49
2022-12-13T00:53:44.286Z,64.11
2022-12-13T00:56:12.801Z,64.01
2022-12-13T00:58:40.024Z,64.05
2022-12-13T01:01:12.231Z,63.90
2022-12-13T01:03:40.252Z,64.10
2022-12-13T01:06:15.363Z,63.61
2022-12-13T01:08:42.952Z,63.11
2022-12-13T01:11:09.925Z,63.16
2022-12-13T01:13:37.057Z,63.15
2022-12-13T01:16:05.147Z,63.53
2022-12-13T01:18:32.136Z,63.46
2022-12-13T01:21:04.977Z,63.67
2022-12-13T01:23:31.671Z,63.61
2022-12-13T01:25:58.180Z,64.09
2022-12-13T01:28:25.054Z,63.77
2022-12-13T01:30:59.094Z,64.74
2022-12-13T01:33:26.357Z,63.47
2022-12-13T01:35:52.898Z,63.06
2022-12-13T01:38:19.847Z,64.42
2022-12-13T01:40:59.008Z,64.01
2022-12-13T01:43:32.029Z,63.86
2022-12-13T01:45:58.564Z,63.17
2022-12-13T01:48:28.693Z,64.11
2022-12-13T01:51:03.726Z,63.30
2022-12-13T01:53:30.976Z,62.99
2022-12-13T01:56:02.427Z,63.00
2022-12-13T01:58:29.146Z,62.54
2022-12-13T02:00:56.037Z,63.08
2022-12-13T02:03:23.085Z,62.93
2022-12-13T02:06:03.477Z,63.21
2022-12-13T02:08:30.219Z,62.70
2022-12-13T02:11:03.240Z,63.16
2022-12-13T02:13:29.742Z,62.92
2022-12-13T02:16:09.616Z,62.64
2022-12-13T02:18:47.634Z,62.88
2022-12-13T02:21:40.275Z,63.51
2022-12-13T02:24:16.195Z,63.31
2022-12-13T02:26:59.589Z,63.66
2022-12-13T02:30:12.053Z,62.74
2022-12-13T02:33:12.749Z,63.18
2022-12-13T02:35:48.186Z,62.76
2022-12-13T02:38:27.514Z,62.84
2022-12-13T02:41:05.226Z,63.62
2022-12-13T02:43:48.081Z,63.28
2022-12-13T02:46:17.567Z,62.80
2022-12-13T02:48:45.594Z,63.71
2022-12-13T02:51:12.786Z,62.32
2022-12-13T02:53:41.070Z,62.86
2022-12-13T02:56:07.939Z,62.20
2022-12-13T02:58:36.785Z,62.55
2022-12-13T03:01:28.152Z,62.58
2022-12-13T03:04:16.909Z,62.00
2022-12-13T03:07:17.778Z,62.37
2022-12-13T03:10:05.345Z,63.53
2022-12-13T03:13:08.979Z,63.43
2022-12-13T03:15:39.957Z,62.54
2022-12-13T03:18:15.841Z,62.15
2022-12-13T03:20:52.034Z,62.57
2022-12-13T03:23:20.317Z,62.64
2022-12-13T03:25:49.982Z,62.49
2022-12-13T03:28:16.464Z,61.96
2022-12-13T03:30:43.065Z,62.16
2022-12-13T03:33:09.551Z,62.19
2022-12-13T03:35:44.788Z,62.56
2022-12-13T03:38:21.511Z,62.43
2022-12-13T03:40:52.057Z,62.88
2022-12-13T03:43:22.179Z,62.61
2022-12-13T03:45:49.202Z,62.16
2022-12-13T03:48:23.035Z,62.32
2022-12-13T03:50:51.201Z,62.81
2022-12-13T03:53:22.962Z,62.28
2022-12-13T03:56:01.094Z,61.93
2022-12-13T03:58:35.293Z,62.04
2022-12-13T04:01:06.999Z,62.00
2022-12-13T04:03:34.095Z,62.01
2022-12-13T04:06:00.631Z,61.87
2022-12-13T04:08:27.218Z,62.68
2022-12-13T04:10:53.766Z,62.12
2022-12-13T04:13:32.471Z,61.80
2022-12-13T04:15:59.230Z,61.89
2022-12-13T04:18:25.866Z,62.75
2022-12-13T04:20:52.335Z,61.92
2022-12-13T04:23:19.020Z,62.82
2022-12-13T04:25:45.865Z,62.60
2022-12-13T04:28:12.371Z,62.97
2022-12-13T04:30:48.339Z,62.31
2022-12-13T04:33:21.045Z,62.25
2022-12-13T04:35:47.983Z,62.54
2022-12-13T04:38:14.603Z,62.38
2022-12-13T04:40:41.175Z,62.49
2022-12-13T04:43:07.725Z,62.63
2022-12-13T04:45:34.275Z,62.25
2022-12-13T04:48:00.753Z,62.01
2022-12-13T04:50:27.263Z,62.35
2022-12-13T04:52:53.750Z,61.30
2022-12-13T04:55:20.230Z,61.32
2022-12-13T04:57:46.686Z,61.53
2022-12-13T05:00:14.157Z,61.73
2022-12-13T05:02:41.506Z,61.64
2022-12-13T05:05:11.251Z,61.19
2022-12-13T05:07:42.431Z,62.92
2022-12-13T05:10:10.454Z,62.30
2022-12-13T05:12:36.929Z,61.98
2022-12-13T05:15:03.804Z,61.36
2022-12-13T05:17:30.345Z,61.52
2022-12-13T05:19:56.800Z,62.18
2022-12-13T05:22:23.392Z,61.60
2022-12-13T05:24:50.636Z,61.43
2022-12-13T05:27:23.965Z,61.96
2022-12-13T05:30:03.809Z,61.85
2022-12-13T05:32:43.056Z,60.58
2022-12-13T05:35:22.825Z,61.52
2022-12-13T05:37:53.358Z,61.61
2022-12-13T05:40:22.825Z,61.62
2022-12-13T05:42:49.327Z,62.49
2022-12-13T05:45:17.737Z,61.67
2022-12-13T05:47:44.364Z,61.81
2022-12-13T05:50:12.025Z,61.41
2022-12-13T05:52:38.944Z,61.23
2022-12-13T05:55:05.961Z,61.97
2022-12-13T05:57:32.593Z,61.21
2022-12-13T06:00:00.734Z,61.22
2022-12-13T06:02:28.516Z,61.20
2022-12-13T06:04:55.288Z,60.96
2022-12-13T06:07:21.822Z,60.76
2022-12-13T06:09:48.287Z,60.64
2022-12-13T06:12:32.386Z,60.18
2022-12-13T06:15:01.398Z,60.53
2022-12-13T06:17:35.307Z,60.52
2022-12-13T06:20:02.218Z,61.00
2022-12-13T06:22:48.683Z,61.03
2022-12-13T06:25:30.694Z,61.03
2022-12-13T06:28:00.849Z,61.90
2022-12-13T06:30:29.200Z,61.17
2022-12-13T06:32:55.965Z,61.77
2022-12-13T06:35:28.858Z,62.13
2022-12-13T06:38:01.692Z,61.41
2022-12-13T06:40:32.123Z,61.65
2022-12-13T06:42:58.668Z,62.18
2022-12-13T06:45:25.612Z,61.66
2022-12-13T06:47:52.110Z,61.32
2022-12-13T06:50:18.752Z,61.36
2022-12-13T06:52:48.294Z,61.50
2022-12-13T06:55:14.913Z,61.97
2022-12-13T06:57:50.246Z,61.56
2022-12-13T07:00:22.221Z,61.93
2022-12-13T07:02:56.674Z,62.09
2022-12-13T07:05:23.496Z,61.33
2022-12-13T07:07:50.104Z,61.08
2022-12-13T07:10:21.572Z,60.83
2022-12-13T07:12:48.778Z,60.74
2022-12-13T07:15:15.446Z,61.34
2022-12-13T07:17:42.573Z,61.20
2022-12-13T07:20:09.586Z,61.94
2022-12-13T07:22:41.549Z,61.88
2022-12-13T07:25:27.756Z,61.74
2022-12-13T07:28:01.929Z,61.25
2022-12-13T07:30:40.927Z,61.31
2022-12-13T07:33:08.038Z,61.99
2022-12-13T07:35:36.845Z,61.80
2022-12-13T07:38:09.557Z,61.87
2022-12-13T07:40:37.988Z,61.60
2022-12-13T07:43:05.115Z,62.51
2022-12-13T07:45:31.732Z,62.01
2022-12-13T07:47:59.181Z,61.38
2022-12-13T07:50:25.957Z,62.66
2022-12-13T07:52:52.706Z,62.69
2022-12-13T07:55:23.300Z,62.24
2022-12-13T07:58:10.621Z,61.88
2022-12-13T08:00:38.879Z,61.82
2022-12-13T08:03:06.085Z,62.23
2022-12-13T08:05:38.641Z,61.79
2022-12-13T08:08:08.293Z,62.02
2022-12-13T08:10:34.875Z,62.16
2022-12-13T08:13:04.412Z,62.10
2022-12-13T08:15:31.154Z,61.27
2022-12-13T08:17:59.043Z,60.86
2022-12-13T08:20:25.494Z,60.83
2022-12-13T08:23:01.783Z,60.63
2022-12-13T08:25:29.482Z,61.17
2022-12-13T08:27:56.016Z,60.92
2022-12-13T08:30:28.567Z,61.22
2022-12-13T08:32:55.906Z,60.72
2022-12-13T08:35:22.494Z,60.73
2022-12-13T08:37:49.017Z,61.13
2022-12-13T08:40:15.552Z,61.38
2022-12-13T08:42:42.064Z,60.75
2022-12-13T08:45:09.152Z,61.00
2022-12-13T08:47:41.573Z,61.17
2022-12-13T08:50:08.989Z,61.14
2022-12-13T08:52:40.104Z,60.30
2022-12-13T08:55:08.811Z,60.87
2022-12-13T08:57:38.994Z,61.12
2022-12-13T09:00:07.320Z,60.39
2022-12-13T09:02:37.717Z,60.05
2022-12-13T09:05:04.702Z,60.09
2022-12-13T09:07:31.199Z,60.39
2022-12-13T09:09:57.671Z,59.66
2022-12-13T09:12:29.674Z,59.43
2022-12-13T09:15:01.515Z,60.08
2022-12-13T09:17:36.543Z,59.34
2022-12-13T09:20:10.395Z,60.30
2022-12-13T09:23:01.893Z,58.86
2022-12-13T09:25:37.268Z,59.37
2022-12-13T09:28:08.565Z,58.51
2022-12-13T09:30:39.271Z,58.24
2022-12-13T09:33:28.275Z,58.17
2022-12-13T09:35:52.578Z,58.48
2022-12-13T09:38:19.460Z,58.19
2022-12-13T09:40:47.955Z,57.77
2022-12-13T09:43:31.730Z,59.19
2022-12-13T09:46:01.699Z,58.35
2022-12-13T09:48:29.246Z,58.13
2022-12-13T09:51:16.951Z,57.64
2022-12-13T09:53:47.747Z,57.95
2022-12-13T09:56:14.510Z,57.83
2022-12-13T09:58:41.364Z,57.89
2022-12-13T10:01:07.868Z,57.75
2022-12-13T10:03:34.649Z,56.80
2022-12-13T10:06:12.365Z,56.71
2022-12-13T10:08:42.179Z,56.14
2022-12-13T10:11:15.934Z,56.16
2022-12-13T10:13:51.074Z,56.37
2022-12-13T10:16:37.047Z,57.42
2022-12-13T10:19:28.519Z,58.05
2022-12-13T10:22:01.198Z,55.53
2022-12-13T10:24:37.381Z,57.57
2022-12-13T10:27:13.316Z,57.64
2022-12-13T10:30:07.849Z,57.57
2022-12-13T10:32:44.903Z,56.89
2022-12-13T10:35:34.467Z,58.15
2022-12-13T10:38:02.961Z,58.55
2022-12-13T10:40:34.790Z,55.82
2022-12-13T10:43:07.657Z,56.85
2022-12-13T10:45:34.237Z,55.65
2022-12-13T10:48:03.983Z,56.06
2022-12-13T10:50:31.206Z,55.07
2022-12-13T10:52:59.124Z,55.30
2022-12-13T10:55:32.101Z,58.59
2022-12-13T10:58:07.064Z,55.67
2022-12-13T11:00:35.745Z,58.88
2022-12-13T11:03:02.531Z,54.97
2022-12-13T11:05:33.264Z,56.08
2022-12-13T11:08:20.837Z,55.29
2022-12-13T11:11:02.807Z,55.98
2022-12-13T11:13:52.846Z,56.55
2022-12-13T11:16:39.024Z,55.75
2022-12-13T11:19:08.626Z,56.37
2022-12-13T11:21:37.252Z,55.23
2022-12-13T11:24:07.255Z,54.78
2022-12-13T11:26:36.186Z,55.66
2022-12-13T11:29:36.296Z,53.63
2022-12-13T11:32:09.056Z,55.83
2022-12-13T11:35:02.900Z,54.21
2022-12-13T11:37:52.158Z,53.37
2022-12-13T11:40:25.697Z,55.66
2022-12-13T11:42:57.467Z,54.52
2022-12-13T11:45:31.157Z,54.39
2022-12-13T11:48:17.645Z,53.48
2022-12-13T11:50:46.993Z,54.07
2022-12-13T11:53:19.269Z,53.49
2022-12-13T11:56:01.303Z,53.47
2022-12-13T12:01:27.540Z,54.06
2022-12-13T12:03:59.160Z,54.16
2022-12-13T12:06:46.651Z,57.48
2022-12-13T12:09:17.785Z,54.62
2022-12-13T12:11:48.097Z,55.28
2022-12-13T12:14:20.244Z,54.38
2022-12-13T12:16:53.478Z,54.42
2022-12-13T12:19:25.935Z,54.49
2022-12-13T12:22:15.998Z,54.23
2022-12-13T12:24:44.239Z,54.60
2022-12-13T12:27:36.953Z,54.41
2022-12-13T12:30:11.261Z,54.29
2022-12-13T12:32:41.450Z,54.10
2022-12-13T12:35:19.935Z,53.34
2022-12-13T12:37:54.259Z,53.27
2022-12-13T12:43:44.757Z,52.46
2022-12-13T12:47:19.019Z,52.87
2022-12-13T12:49:47.842Z,53.84
2022-12-13T12:52:42.137Z,53.01
2022-12-13T12:55:18.018Z,52.96
2022-12-13T12:58:06.028Z,52.88
2022-12-13T13:00:48.031Z,51.36
2022-12-13T13:03:23.573Z,51.33
2022-12-13T13:06:02.948Z,52.72
2022-12-13T13:08:51.486Z,51.81
2022-12-13T13:11:25.517Z,50.66
2022-12-13T13:14:01.760Z,50.85
2022-12-13T13:16:29.951Z,51.96
2022-12-13T13:19:12.120Z,51.63
2022-12-13T13:21:42.742Z,52.08
2022-12-13T13:24:09.173Z,50.94
2022-12-13T13:26:40.139Z,51.65
2022-12-13T13:29:27.919Z,51.06
2022-12-13T13:32:28.095Z,49.71
2022-12-13T13:35:32.228Z,51.26
2022-12-13T13:38:04.444Z,50.56
2022-12-13T13:40:36.346Z,50.30
2022-12-13T13:43:06.060Z,50.70
2022-12-13T13:45:51.369Z,50.23
2022-12-13T13:48:24.869Z,50.32
2022-12-13T13:51:28.148Z,50.64
2022-12-13T13:54:13.505Z,50.52
2022-12-13T13:56:45.312Z,49.96
2022-12-13T13:59:30.559Z,50.71
2022-12-13T14:02:29.609Z,49.91
2022-12-13T14:05:18.309Z,49.69
2022-12-13T14:07:58.539Z,50.58
2022-12-13T14:10:47.216Z,49.38
2022-12-13T14:13:37.640Z,50.23
2022-12-13T14:16:42.017Z,49.93
2022-12-13T14:19:20.510Z,48.75
2022-12-13T14:22:11.510Z,49.71
2022-12-13T14:24:58.219Z,49.51
2022-12-13T14:27:34.959Z,49.01
2022-12-13T14:30:01.826Z,48.90
2022-12-13T14:32:52.463Z,49.28
2022-12-13T14:35:26.106Z,49.73
2022-12-13T14:38:23.553Z,50.44
2022-12-13T14:40:54.135Z,52.37
2022-12-13T14:43:25.602Z,49.93
2022-12-13T14:45:57.536Z,50.49
2022-12-13T14:48:28.928Z,50.57
2022-12-13T14:50:56.524Z,50.21
2022-12-13T14:53:37.331Z,51.20
2022-12-13T14:56:10.234Z,50.94
2022-12-13T14:58:38.177Z,50.63
2022-12-13T15:01:47.509Z,51.50
2022-12-13T15:04:32.403Z,50.46
2022-12-13T15:07:08.582Z,49.95
2022-12-13T15:09:39.855Z,49.99
2022-12-13T15:12:26.008Z,50.32
2022-12-13T15:15:10.522Z,49.49
2022-12-13T15:17:39.543Z,51.23
2022-12-13T15:20:27.785Z,51.55
2022-12-13T15:23:07.215Z,50.73
2022-12-13T15:25:36.828Z,50.84
2022-12-13T15:28:04.826Z,50.47
2022-12-13T15:30:33.893Z,50.62
2022-12-13T15:33:20.031Z,51.26
2022-12-13T15:35:48.356Z,52.18
2022-12-13T15:38:28.930Z,51.47
2022-12-13T15:40:56.146Z,50.58
2022-12-13T15:43:30.137Z,51.31
2022-12-13T15:45:56.627Z,50.96
2022-12-13T15:48:29.688Z,51.48
2022-12-13T15:51:06.816Z,52.91
2022-12-13T15:53:34.107Z,51.70
2022-12-13T15:56:06.181Z,51.47
2022-12-13T15:58:36.861Z,52.20
2022-12-13T16:01:05.526Z,51.13
2022-12-13T16:03:43.405Z,52.65
2022-12-13T16:06:10.277Z,52.57
2022-12-13T16:08:40.017Z,51.51
2022-12-13T16:11:07.756Z,52.22
2022-12-13T16:13:39.741Z,52.84
2022-12-13T16:16:27.183Z,52.96
2022-12-13T16:18:55.362Z,52.46
2022-12-13T16:21:21.847Z,52.62
2022-12-13T16:23:49.267Z,51.70
2022-12-13T16:26:21.756Z,52.45
2022-12-13T16:28:48.237Z,53.12
2022-12-13T16:31:21.215Z,54.11
2022-12-13T16:33:47.770Z,52.61
2022-12-13T16:36:14.481Z,54.12
2022-12-13T16:38:43.691Z,53.86
2022-12-13T16:41:10.577Z,54.40
2022-12-13T16:43:40.681Z,54.83
2022-12-13T16:47:09.995Z,53.89
2022-12-13T16:48:54.522Z,53.11
2022-12-13T16:51:21.715Z,54.21
2022-12-13T16:53:48.348Z,54.20
2022-12-13T16:56:21.250Z,54.63
2022-12-13T16:58:50.954Z,55.45
2022-12-13T17:01:22.275Z,55.33
2022-12-13T17:03:48.773Z,54.68
2022-12-13T17:06:20.051Z,53.88
2022-12-13T17:08:46.563Z,54.39
2022-12-13T17:11:17.802Z,54.53
2022-12-13T17:13:46.884Z,54.51
2022-12-13T17:16:14.000Z,54.55
2022-12-13T17:18:43.468Z,55.22
2022-12-13T17:21:10.483Z,55.43
2022-12-13T17:23:37.200Z,54.27
2022-12-13T17:26:05.765Z,55.52
2022-12-13T17:28:32.337Z,53.83
2022-12-13T17:31:10.039Z,53.97
2022-12-13T17:33:36.603Z,54.61
2022-12-13T17:36:04.577Z,54.24
2022-12-13T17:38:31.267Z,56.51
2022-12-13T17:40:57.755Z,55.98
2022-12-13T17:43:34.354Z,55.78
2022-12-13T17:46:06.535Z,55.37
2022-12-13T17:48:39.835Z,57.01
2022-12-13T17:51:11.920Z,55.26
2022-12-13T17:53:39.657Z,55.98
2022-12-13T17:56:07.971Z,55.69
2022-12-13T17:58:35.250Z,56.19
2022-12-13T18:01:23.313Z,55.94
2022-12-13T18:03:52.751Z,54.33
2022-12-13T18:06:26.002Z,55.45
2022-12-13T18:09:01.784Z,54.96
2022-12-13T18:11:33.358Z,56.19
2022-12-13T18:14:05.226Z,56.16
2022-12-13T18:16:38.982Z,54.99
2022-12-13T18:19:07.976Z,55.59
2022-12-13T18:21:36.593Z,56.55
2022-12-13T18:24:03.453Z,55.30
2022-12-13T18:26:30.013Z,55.58
2022-12-13T18:28:56.746Z,55.92
2022-12-13T18:31:24.674Z,55.57
2022-12-13T18:33:53.064Z,55.88
2022-12-13T18:36:21.149Z,55.67
2022-12-13T18:38:48.225Z,56.70
2022-12-13T18:41:20.167Z,56.30
2022-12-13T18:43:47.443Z,54.79
2022-12-13T18:46:14.765Z,55.16
2022-12-13T18:48:41.529Z,55.83
2022-12-13T18:51:09.199Z,55.24
2022-12-13T18:53:37.099Z,55.48
2022-12-13T18:56:06.073Z,55.29
2022-12-13T18:58:33.143Z,55.50
2022-12-13T19:00:59.666Z,54.15
2022-12-13T19:03:27.079Z,55.68
2022-12-13T19:05:56.619Z,55.54
2022-12-13T19:08:26.152Z,53.85
2022-12-13T19:10:54.073Z,54.34
2022-12-13T19:13:22.936Z,54.94
2022-12-13T19:15:50.196Z,54.71
2022-12-13T19:18:17.259Z,55.37
2022-12-13T19:20:50.686Z,55.18
2022-12-13T19:23:18.185Z,55.92
2022-12-13T19:25:45.325Z,54.66
2022-12-13T19:28:15.510Z,55.21
2022-12-13T19:30:44.786Z,56.35
2022-12-13T19:33:11.667Z,55.55
2022-12-13T19:35:40.193Z,56.37
2022-12-13T19:38:06.628Z,56.76
2022-12-13T19:40:37.827Z,56.69
2022-12-13T19:43:04.329Z,56.11
2022-12-13T19:45:30.829Z,54.99
2022-12-13T19:47:57.292Z,56.77
2022-12-13T19:50:23.800Z,56.20
2022-12-13T19:52:50.347Z,55.44
2022-12-13T19:55:16.870Z,55.34
2022-12-13T19:57:43.433Z,56.67
2022-12-13T20:00:11.526Z,55.89
2022-12-13T20:02:38.128Z,56.21
2022-12-13T20:05:05.271Z,55.84
2022-12-13T20:07:31.804Z,56.42
2022-12-13T20:09:58.291Z,57.76
2022-12-13T20:12:24.768Z,56.01
2022-12-13T20:14:51.244Z,56.40
2022-12-13T20:17:17.975Z,55.90
2022-12-13T20:19:44.430Z,55.63
2022-12-13T20:22:11.075Z,55.15
2022-12-13T20:24:38.337Z,54.94
2022-12-13T20:27:04.854Z,56.42
2022-12-13T20:29:31.351Z,56.11
2022-12-13T20:31:57.963Z,55.63
2022-12-13T20:34:24.489Z,55.52
2022-12-13T20:36:51.019Z,55.75
2022-12-13T20:39:17.474Z,57.04
2022-12-13T20:41:44.044Z,56.21
2022-12-13T20:44:11.656Z,56.13
2022-12-13T20:46:38.480Z,56.27
2022-12-13T20:49:06.824Z,57.14
2022-12-13T20:51:34.881Z,56.19
2022-12-13T20:54:01.622Z,57.08
2022-12-13T20:56:30.441Z,56.47
2022-12-13T20:58:56.953Z,55.91
2022-12-13T21:01:30.320Z,56.22
2022-12-13T21:04:00.143Z,55.07
2022-12-13T21:06:30.394Z,56.46
2022-12-13T21:09:02.541Z,56.70
2022-12-13T21:11:33.397Z,55.55
2022-12-13T21:14:23.168Z,56.97
2022-12-13T21:16:58.711Z,55.98
2022-12-13T21:19:37.489Z,56.50
2022-12-13T21:22:05.895Z,55.49
2022-12-13T21:24:32.369Z,54.67
2022-12-13T21:26:59.823Z,56.10
2022-12-13T21:29:26.319Z,57.05
2022-12-13T21:31:54.602Z,56.44
2022-12-13T21:34:22.149Z,55.78
2022-12-13T21:36:50.734Z,56.90
2022-12-13T21:39:18.092Z,56.51
2022-12-13T21:41:44.753Z,56.20
2022-12-13T21:44:12.960Z,57.49
2022-12-13T21:47:11.883Z,56.38
2022-12-13T21:49:26.527Z,57.46
2022-12-13T21:51:53.005Z,57.12
2022-12-13T21:54:19.532Z,57.81
2022-12-13T21:57:04.651Z,58.00
2022-12-13T21:59:31.712Z,56.86
2022-12-13T22:02:14.282Z,56.98
2022-12-13T22:04:45.906Z,56.96
2022-12-13T22:07:15.505Z,56.61
2022-12-13T22:09:44.169Z,57.25
2022-12-13T22:12:18.963Z,55.97
2022-12-13T22:14:46.174Z,56.39
2022-12-13T22:17:12.862Z,56.82
2022-12-13T22:19:39.502Z,55.71
2022-12-13T22:22:06.428Z,56.94
2022-12-13T22:24:32.994Z,56.57
2022-12-13T22:26:59.655Z,56.14
2022-12-13T22:29:26.370Z,55.82
2022-12-13T22:31:52.886Z,56.23
2022-12-13T22:34:20.271Z,57.51
2022-12-13T22:36:46.735Z,57.72
2022-12-13T22:39:18.530Z,58.30
2022-12-13T22:41:46.215Z,56.69
2022-12-13T22:44:16.326Z,57.09
2022-12-13T22:46:42.778Z,56.98
2022-12-13T22:49:09.981Z,56.10
2022-12-13T22:51:37.122Z,56.74
2022-12-13T22:54:04.002Z,57.03
2022-12-13T22:56:30.955Z,57.77
2022-12-13T22:59:01.754Z,55.59
2022-12-13T23:01:30.675Z,57.58
2022-12-13T23:03:57.755Z,55.95
2022-12-13T23:06:29.622Z,54.48
2022-12-13T23:09:01.482Z,55.58
2022-12-13T23:11:48.056Z,55.20
2022-12-13T23:14:18.338Z,55.75
2022-12-13T23:16:47.346Z,56.67
2022-12-13T23:22:02.295Z,57.30
2022-12-13T23:24:29.167Z,56.91
2022-12-13T23:26:56.088Z,56.18
2022-12-13T23:29:22.629Z,56.18
2022-12-13T23:31:49.414Z,55.76
2022-12-13T23:34:16.314Z,57.43
2022-12-13T23:36:42.873Z,56.29
2022-12-13T23:39:11.185Z,56.96
2022-12-13T23:41:37.780Z,56.25
2022-12-13T23:44:04.526Z,54.65
2022-12-13T23:46:34.229Z,55.17
2022-12-13T23:49:01.693Z,55.87
2022-12-13T23:51:28.376Z,55.22
2022-12-13T23:53:55.149Z,56.41
2022-12-13T23:56:24.191Z,55.49
2022-12-13T23:58:51.336Z,55.58
